createdAt,value
2022-08-21T00:00:33.217Z,24.5
2022-08-21T00:01:35.715Z,24.5
2022-08-21T00:02:38.075Z,24.6
2022-08-21T00:03:40.829Z,24.5
2022-08-21T00:05:47.998Z,24.5
2022-08-21T00:06:50.499Z,24.5
2022-08-21T00:07:52.981Z,24.6
2022-08-21T00:08:55.173Z,24.6
2022-08-21T00:09:57.656Z,24.6
2022-08-21T00:10:59.854Z,24.6
2022-08-21T00:12:02.029Z,24.6
2022-08-21T00:13:05.535Z,24.5
2022-08-21T00:14:07.725Z,24.6
2022-08-21T00:15:12.305Z,24.7
2022-08-21T00:16:17.452Z,24.5
2022-08-21T00:17:19.948Z,24.6
2022-08-21T00:18:22.423Z,24.7
2022-08-21T00:19:24.631Z,24.5
2022-08-21T00:20:26.555Z,24.7
2022-08-21T00:21:28.745Z,24.5
2022-08-21T00:22:30.941Z,24.7
2022-08-21T00:23:33.450Z,24.6
2022-08-21T00:24:35.935Z,24.6
2022-08-21T00:25:38.441Z,24.7
2022-08-21T00:26:40.648Z,24.7
2022-08-21T00:27:42.857Z,24.6
2022-08-21T00:28:45.071Z,24.7
2022-08-21T00:29:46.723Z,24.6
2022-08-21T00:30:49.193Z,24.7
2022-08-21T00:31:51.671Z,24.6
2022-08-21T00:32:53.873Z,24.6
2022-08-21T00:35:01.535Z,24.6
2022-08-21T00:36:04.025Z,24.6
2022-08-21T00:37:06.494Z,24.5
2022-08-21T00:38:08.966Z,24.7
2022-08-21T00:39:11.449Z,24.7
2022-08-21T00:40:14.076Z,24.7
2022-08-21T00:42:21.557Z,24.5
2022-08-21T00:43:24.030Z,24.7
2022-08-21T00:44:26.496Z,24.6
2022-08-21T00:45:28.976Z,24.7
2022-08-21T00:46:31.152Z,24.7
2022-08-21T00:47:33.353Z,24.7
2022-08-21T00:48:35.831Z,24.7
2022-08-21T00:49:38.039Z,24.7
2022-08-21T00:50:40.257Z,24.8
2022-08-21T00:51:42.738Z,24.6
2022-08-21T00:52:45.213Z,24.6
2022-08-21T00:54:52.411Z,24.5
2022-08-21T00:55:59.356Z,24.7
2022-08-21T00:57:02.198Z,24.7
2022-08-21T00:59:10.937Z,24.7
2022-08-21T01:00:13.150Z,24.7
2022-08-21T01:01:15.570Z,24.7
2022-08-21T01:02:21.598Z,24.8
2022-08-21T01:03:24.412Z,24.8
2022-08-21T01:04:27.650Z,24.7
2022-08-21T01:05:29.863Z,24.8
2022-08-21T01:06:32.332Z,24.7
2022-08-21T01:07:34.810Z,24.8
2022-08-21T01:08:37.496Z,24.8
2022-08-21T01:09:42.980Z,24.8
2022-08-21T01:10:45.830Z,24.7
2022-08-21T01:11:52.147Z,24.6
2022-08-21T01:12:54.774Z,24.7
2022-08-21T01:13:57.694Z,24.8
2022-08-21T01:15:00.171Z,24.8
2022-08-21T01:16:02.638Z,24.8
2022-08-21T01:17:04.556Z,24.6
2022-08-21T01:18:07.030Z,24.8
2022-08-21T01:19:09.524Z,24.7
2022-08-21T01:20:14.111Z,24.8
2022-08-21T01:21:16.587Z,24.8
2022-08-21T01:22:20.838Z,24.8
2022-08-21T01:23:23.316Z,24.7
2022-08-21T01:24:25.779Z,24.9
2022-08-21T01:25:28.269Z,24.8
2022-08-21T01:27:35.748Z,24.8
2022-08-21T01:28:38.223Z,24.6
2022-08-21T01:29:40.461Z,24.7
2022-08-21T01:30:42.658Z,24.8
2022-08-21T01:31:45.133Z,24.8
2022-08-21T01:32:47.619Z,24.8
2022-08-21T01:33:49.818Z,24.8
2022-08-21T01:34:52.306Z,24.8
2022-08-21T01:35:54.540Z,24.8
2022-08-21T01:36:57.049Z,24.8
2022-08-21T01:37:59.244Z,24.8
2022-08-21T01:39:01.483Z,24.9
2022-08-21T01:40:04.103Z,24.8
2022-08-21T01:41:06.869Z,24.8
2022-08-21T01:42:09.362Z,24.7
2022-08-21T01:43:11.298Z,24.8
2022-08-21T01:44:13.520Z,24.9
2022-08-21T01:45:15.730Z,24.8
2022-08-21T01:46:17.911Z,24.9
2022-08-21T01:47:20.403Z,24.7
2022-08-21T01:48:22.896Z,24.8
2022-08-21T01:49:25.377Z,24.9
2022-08-21T01:50:27.867Z,24.7
2022-08-21T01:51:30.061Z,24.7
2022-08-21T01:52:31.140Z,24.7
2022-08-21T01:53:34.178Z,24.8
2022-08-21T01:54:36.571Z,24.7
2022-08-21T01:55:38.776Z,24.8
2022-08-21T01:56:40.970Z,24.9
2022-08-21T01:57:43.442Z,24.8
2022-08-21T01:58:45.910Z,24.8
2022-08-21T01:59:48.400Z,24.9
2022-08-21T02:00:51.066Z,24.8
2022-08-21T02:01:53.725Z,24.8
2022-08-21T02:02:55.925Z,24.8
2022-08-21T02:03:59.129Z,24.9
2022-08-21T02:05:01.313Z,24.9
2022-08-21T02:06:03.516Z,24.8
2022-08-21T02:08:10.996Z,25
2022-08-21T02:09:13.194Z,24.9
2022-08-21T02:10:17.449Z,24.8
2022-08-21T02:11:19.922Z,24.8
2022-08-21T02:12:22.131Z,24.9
2022-08-21T02:13:24.603Z,24.8
2022-08-21T02:15:32.089Z,24.8
2022-08-21T02:16:34.583Z,24.8
2022-08-21T02:17:38.355Z,24.9
2022-08-21T02:18:40.842Z,24.9
2022-08-21T02:19:43.317Z,25
2022-08-21T02:20:44.958Z,24.8
2022-08-21T02:21:47.419Z,24.8
2022-08-21T02:22:49.899Z,24.9
2022-08-21T02:23:52.573Z,24.9
2022-08-21T02:24:55.927Z,24.9
2022-08-21T02:25:58.394Z,24.8
2022-08-21T02:27:00.879Z,24.9
2022-08-21T02:28:03.071Z,24.9
2022-08-21T02:29:05.553Z,24.9
2022-08-21T02:30:08.016Z,24.8
2022-08-21T02:31:10.235Z,24.9
2022-08-21T02:33:17.738Z,24.9
2022-08-21T02:34:20.226Z,24.8
2022-08-21T02:35:27.170Z,24.8
2022-08-21T02:36:30.827Z,24.9
2022-08-21T02:37:33.302Z,25
2022-08-21T02:38:35.777Z,25
2022-08-21T02:39:38.050Z,24.9
2022-08-21T02:41:45.664Z,24.9
2022-08-21T02:42:48.143Z,24.9
2022-08-21T02:43:50.624Z,24.9
2022-08-21T02:44:52.845Z,24.9
2022-08-21T02:45:55.054Z,24.8
2022-08-21T02:46:57.256Z,24.8
2022-08-21T02:47:59.725Z,24.9
2022-08-21T02:49:07.490Z,24.8
2022-08-21T02:50:09.983Z,24.8
2022-08-21T02:51:11.924Z,24.9
2022-08-21T02:52:14.398Z,24.8
2022-08-21T02:53:16.292Z,24.9
2022-08-21T02:54:18.558Z,25
2022-08-21T02:55:20.479Z,24.8
2022-08-21T02:56:22.950Z,24.7
2022-08-21T02:57:30.814Z,24.8
2022-08-21T02:58:32.765Z,24.8
2022-08-21T02:59:34.953Z,24.8
2022-08-21T03:00:37.131Z,24.9
2022-08-21T03:01:39.681Z,24.8
2022-08-21T03:02:41.882Z,24.8
2022-08-21T03:03:44.347Z,24.9
2022-08-21T03:04:47.423Z,25
2022-08-21T03:05:49.337Z,24.7
2022-08-21T03:06:51.810Z,24.8
2022-08-21T03:07:53.984Z,24.9
2022-08-21T03:08:56.178Z,24.8
2022-08-21T03:09:58.371Z,24.7
2022-08-21T03:11:00.853Z,24.7
2022-08-21T03:12:03.034Z,24.8
2022-08-21T03:13:05.524Z,24.7
2022-08-21T03:14:07.166Z,24.8
2022-08-21T03:15:09.386Z,24.8
2022-08-21T03:16:11.876Z,24.7
2022-08-21T03:17:14.077Z,24.6
2022-08-21T03:18:16.564Z,24.6
2022-08-21T03:19:18.772Z,24.7
2022-08-21T03:20:21.242Z,24.7
2022-08-21T03:21:23.720Z,24.7
2022-08-21T03:22:27.607Z,24.5
2022-08-21T03:23:33.116Z,24.7
2022-08-21T03:25:43.090Z,24.6
2022-08-21T03:26:46.817Z,24.6
2022-08-21T03:28:54.681Z,24.5
2022-08-21T03:29:56.623Z,24.6
2022-08-21T03:30:58.821Z,24.6
2022-08-21T03:32:01.298Z,24.6
2022-08-21T03:33:03.792Z,24.6
2022-08-21T03:34:05.994Z,24.6
2022-08-21T03:35:09.264Z,24.5
2022-08-21T03:36:11.740Z,24.4
2022-08-21T03:37:14.226Z,24.5
2022-08-21T03:38:16.711Z,24.5
2022-08-21T03:39:19.203Z,24.5
2022-08-21T03:40:21.773Z,24.5
2022-08-21T03:41:23.967Z,24.4
2022-08-21T03:42:26.448Z,24.6
2022-08-21T03:44:33.913Z,24.5
2022-08-21T03:45:36.399Z,24.4
2022-08-21T03:46:38.586Z,24.6
2022-08-21T03:47:40.515Z,24.4
2022-08-21T03:48:42.973Z,24.4
2022-08-21T03:49:45.178Z,24.5
2022-08-21T03:50:47.641Z,24.4
2022-08-21T03:52:55.248Z,24.4
2022-08-21T03:53:57.263Z,24.4
2022-08-21T03:54:59.743Z,24.5
2022-08-21T03:56:02.239Z,24.4
2022-08-21T03:57:04.702Z,24.4
2022-08-21T03:59:12.177Z,24.4
2022-08-21T04:00:14.660Z,24.4
2022-08-21T04:01:17.337Z,24.3
2022-08-21T04:02:19.717Z,24.4
2022-08-21T04:03:21.908Z,24.3
2022-08-21T04:04:24.395Z,24.4
2022-08-21T04:05:26.866Z,24.3
2022-08-21T04:06:29.401Z,24.3
2022-08-21T04:07:35.361Z,24.4
2022-08-21T04:08:37.571Z,24.4
2022-08-21T04:09:39.760Z,24.4
2022-08-21T04:10:42.406Z,24.4
2022-08-21T04:11:44.588Z,24.4
2022-08-21T04:12:47.068Z,24.4
2022-08-21T04:13:49.265Z,24.5
2022-08-21T04:14:51.769Z,24.4
2022-08-21T04:15:54.238Z,24.4
2022-08-21T04:16:56.758Z,24.4
2022-08-21T04:17:59.239Z,24.3
2022-08-21T04:19:01.468Z,24.3
2022-08-21T04:20:04.029Z,24.4
2022-08-21T04:22:11.516Z,24.3
2022-08-21T04:24:18.990Z,24.2
2022-08-21T04:25:21.208Z,24.3
2022-08-21T04:26:23.650Z,24.4
2022-08-21T04:27:25.824Z,24.3
2022-08-21T04:30:38.388Z,24.3
2022-08-21T04:31:40.954Z,24.3
2022-08-21T04:32:43.427Z,24.3
2022-08-21T04:33:45.635Z,24.3
2022-08-21T04:34:47.590Z,24.3
2022-08-21T04:35:50.069Z,24.4
2022-08-21T04:36:52.261Z,24.2
2022-08-21T04:37:54.741Z,24.4
2022-08-21T04:38:57.784Z,24.3
2022-08-21T04:40:05.796Z,24.3
2022-08-21T04:41:08.987Z,24.3
2022-08-21T04:42:11.460Z,24.3
2022-08-21T04:43:13.104Z,24.2
2022-08-21T04:44:15.292Z,24.4
2022-08-21T04:45:17.768Z,24.3
2022-08-21T04:46:20.232Z,24.2
2022-08-21T04:47:23.869Z,24.3
2022-08-21T04:48:29.069Z,24.3
2022-08-21T04:49:31.273Z,24.2
2022-08-21T04:50:33.446Z,24.3
2022-08-21T04:51:35.641Z,24.2
2022-08-21T04:52:38.120Z,24.2
2022-08-21T04:53:40.807Z,24.2
2022-08-21T04:54:42.733Z,24.3
2022-08-21T04:55:45.218Z,24.3
2022-08-21T04:56:47.414Z,24.3
2022-08-21T04:57:50.017Z,24.3
2022-08-21T04:58:52.217Z,24.3
2022-08-21T04:59:54.701Z,24.3
2022-08-21T05:00:57.162Z,24.1
2022-08-21T05:01:59.798Z,24.3
2022-08-21T05:03:02.676Z,24.2
2022-08-21T05:04:04.854Z,24.2
2022-08-21T05:05:07.053Z,24.3
2022-08-21T05:06:09.533Z,24.3
2022-08-21T05:07:11.471Z,24.3
2022-08-21T05:08:13.726Z,24.3
2022-08-21T05:09:16.219Z,24.2
2022-08-21T05:10:18.141Z,24.2
2022-08-21T05:11:20.613Z,24.3
2022-08-21T05:12:23.085Z,24.2
2022-08-21T05:13:25.011Z,24.3
2022-08-21T05:14:27.488Z,24.2
2022-08-21T05:15:29.956Z,24.2
2022-08-21T05:17:37.157Z,24.3
2022-08-21T05:18:39.648Z,24.3
2022-08-21T05:19:42.118Z,24.3
2022-08-21T05:20:43.786Z,24.2
2022-08-21T05:21:46.261Z,24.2
2022-08-21T05:22:48.466Z,24.2
2022-08-21T05:23:50.665Z,24.3
2022-08-21T05:24:52.927Z,24.3
2022-08-21T05:25:55.294Z,24.3
2022-08-21T05:26:57.773Z,24.2
2022-08-21T05:28:06.310Z,24.2
2022-08-21T05:30:14.222Z,24.2
2022-08-21T05:31:16.423Z,24.2
2022-08-21T05:32:18.897Z,24.2
2022-08-21T05:33:21.376Z,24.1
2022-08-21T05:34:23.840Z,24.2
2022-08-21T05:35:25.772Z,24.2
2022-08-21T05:36:28.243Z,24.2
2022-08-21T05:37:30.727Z,24.1
2022-08-21T05:38:33.206Z,24.3
2022-08-21T05:40:40.222Z,24.3
2022-08-21T05:41:42.662Z,24.3
2022-08-21T05:43:50.125Z,24.2
2022-08-21T05:44:52.915Z,24.1
2022-08-21T05:45:56.166Z,24.2
2022-08-21T05:46:58.106Z,24.2
2022-08-21T05:48:00.292Z,24.1
2022-08-21T05:49:05.031Z,24.1
2022-08-21T05:50:07.514Z,24
2022-08-21T05:51:09.733Z,24.2
2022-08-21T05:52:12.201Z,24.2
2022-08-21T05:53:14.690Z,24.2
2022-08-21T05:54:18.463Z,24.2
2022-08-21T05:55:20.177Z,24.2
2022-08-21T05:56:22.371Z,24.3
2022-08-21T05:57:24.598Z,24.2
2022-08-21T05:58:26.500Z,24.1
2022-08-21T05:59:28.704Z,24.2
2022-08-21T06:00:31.194Z,24.2
2022-08-21T06:01:33.781Z,24.2
2022-08-21T06:02:36.505Z,24.3
2022-08-21T06:03:38.996Z,24.2
2022-08-21T06:04:41.218Z,24.1
2022-08-21T06:05:43.134Z,24.3
2022-08-21T06:06:45.317Z,24.2
2022-08-21T06:07:47.530Z,24.1
2022-08-21T06:08:49.761Z,24.2
2022-08-21T06:09:52.245Z,24.2
2022-08-21T06:10:54.453Z,24.2
2022-08-21T06:11:56.944Z,24.1
2022-08-21T06:12:59.951Z,24.2
2022-08-21T06:14:02.467Z,24.2
2022-08-21T06:15:04.944Z,24.2
2022-08-21T06:16:07.172Z,24.2
2022-08-21T06:17:09.660Z,24.2
2022-08-21T06:18:11.574Z,24.1
2022-08-21T06:19:13.770Z,24.2
2022-08-21T06:20:16.268Z,24.2
2022-08-21T06:21:18.752Z,24.1
2022-08-21T06:22:20.967Z,24
2022-08-21T06:24:27.877Z,24.3
2022-08-21T06:25:30.360Z,24.1
2022-08-21T06:26:32.580Z,24.2
2022-08-21T06:27:35.059Z,24.2
2022-08-21T06:28:37.003Z,24.2
2022-08-21T06:30:44.487Z,24.2
2022-08-21T06:31:48.374Z,24.1
2022-08-21T06:32:50.809Z,24.1
2022-08-21T06:33:53.452Z,24
2022-08-21T06:34:55.656Z,24.3
2022-08-21T06:35:57.894Z,24.1
2022-08-21T06:37:00.091Z,24.2
2022-08-21T06:38:02.607Z,24.1
2022-08-21T06:41:15.118Z,24.1
2022-08-21T06:42:17.614Z,24.2
2022-08-21T06:43:20.686Z,24.2
2022-08-21T06:44:25.898Z,24.1
2022-08-21T06:46:33.103Z,24.2
2022-08-21T06:47:35.304Z,24.1
2022-08-21T06:48:37.510Z,24.1
2022-08-21T06:49:39.707Z,24.2
2022-08-21T06:50:42.516Z,24.2
2022-08-21T06:51:44.719Z,24.2
2022-08-21T06:52:47.305Z,24.2
2022-08-21T06:53:49.224Z,24.1
2022-08-21T06:54:51.426Z,24.1
2022-08-21T06:55:53.610Z,24.1
2022-08-21T06:56:55.251Z,24.1
2022-08-21T06:57:57.748Z,24.1
2022-08-21T06:59:00.217Z,24.2
2022-08-21T07:00:02.576Z,24.1
2022-08-21T07:01:05.197Z,24.1
2022-08-21T07:02:07.415Z,24.2
2022-08-21T07:03:09.617Z,24.1
2022-08-21T07:04:11.837Z,24.2
2022-08-21T07:06:18.768Z,24.1
2022-08-21T07:07:21.249Z,24.2
2022-08-21T07:08:23.176Z,24.1
2022-08-21T07:09:25.673Z,24.1
2022-08-21T07:10:27.898Z,24.2
2022-08-21T07:11:30.105Z,24.1
2022-08-21T07:12:35.817Z,24.1
2022-08-21T07:13:38.306Z,24.2
2022-08-21T07:14:40.509Z,24.1
2022-08-21T07:15:42.167Z,24.2
2022-08-21T07:16:44.643Z,24.1
2022-08-21T07:17:46.864Z,24.1
2022-08-21T07:18:49.053Z,24.2
2022-08-21T07:19:51.241Z,24
2022-08-21T07:20:53.722Z,24.1
2022-08-21T07:21:55.934Z,24
2022-08-21T07:22:58.969Z,24.3
2022-08-21T07:24:01.596Z,24.2
2022-08-21T07:25:04.068Z,24.1
2022-08-21T07:26:06.296Z,24.3
2022-08-21T07:27:10.402Z,24.2
2022-08-21T07:28:12.335Z,24.2
2022-08-21T07:29:14.822Z,24
2022-08-21T07:30:17.301Z,24.2
2022-08-21T07:31:19.496Z,24.1
2022-08-21T07:32:21.849Z,24.3
2022-08-21T07:33:24.328Z,24.2
2022-08-21T07:34:26.263Z,24.1
2022-08-21T07:35:28.737Z,24.1
2022-08-21T07:37:35.931Z,24.2
2022-08-21T07:38:38.156Z,24.1
2022-08-21T07:39:40.787Z,24.2
2022-08-21T07:40:43.472Z,24.2
2022-08-21T07:41:45.122Z,24
2022-08-21T07:42:47.320Z,24.2
2022-08-21T07:45:59.510Z,24.2
2022-08-21T07:47:01.436Z,24
2022-08-21T07:48:03.906Z,24.1
2022-08-21T07:49:05.905Z,24.2
2022-08-21T07:50:08.100Z,24.2
2022-08-21T07:51:10.345Z,24.1
2022-08-21T07:52:12.550Z,24.1
2022-08-21T07:53:15.038Z,24.1
2022-08-21T07:54:17.919Z,24.1
2022-08-21T07:55:23.388Z,24.1
2022-08-21T07:56:25.603Z,24.2
2022-08-21T07:57:28.081Z,24.1
2022-08-21T07:58:30.635Z,24.1
2022-08-21T07:59:34.867Z,24.1
2022-08-21T08:00:36.776Z,24.2
2022-08-21T08:01:39.368Z,24.1
2022-08-21T08:02:42.066Z,24.1
2022-08-21T08:03:44.530Z,24.2
2022-08-21T08:05:51.737Z,24.1
2022-08-21T08:06:54.231Z,24
2022-08-21T08:07:56.142Z,24.1
2022-08-21T08:08:58.317Z,24.1
2022-08-21T08:10:00.235Z,24.1
2022-08-21T08:11:02.724Z,24.1
2022-08-21T08:12:05.229Z,24
2022-08-21T08:14:12.708Z,24.1
2022-08-21T08:15:14.940Z,24.2
2022-08-21T08:16:17.431Z,24.1
2022-08-21T08:17:19.930Z,24
2022-08-21T08:18:22.104Z,24
2022-08-21T08:19:24.336Z,24.1
2022-08-21T08:20:26.527Z,24.1
2022-08-21T08:21:28.752Z,24.1
2022-08-21T08:22:30.973Z,24
2022-08-21T08:23:33.485Z,24.1
2022-08-21T08:24:35.714Z,24.2
2022-08-21T08:25:38.219Z,24.1
2022-08-21T08:26:40.141Z,24.1
2022-08-21T08:27:42.646Z,24.1
2022-08-21T08:28:44.270Z,24.1
2022-08-21T08:29:46.178Z,24.1
2022-08-21T08:30:48.639Z,24
2022-08-21T08:31:51.831Z,24.2
2022-08-21T08:32:53.762Z,24
2022-08-21T08:33:56.461Z,24.1
2022-08-21T08:34:58.660Z,24
2022-08-21T08:37:08.353Z,24
2022-08-21T08:38:10.841Z,24.1
2022-08-21T08:40:18.354Z,24.1
2022-08-21T08:41:21.310Z,24
2022-08-21T08:43:28.821Z,24.1
2022-08-21T08:44:31.057Z,24.2
2022-08-21T08:45:33.280Z,24.1
2022-08-21T08:46:35.506Z,24.1
2022-08-21T08:47:37.992Z,24
2022-08-21T08:48:40.211Z,24
2022-08-21T08:49:42.748Z,24.1
2022-08-21T08:50:45.229Z,24
2022-08-21T08:52:52.751Z,24.1
2022-08-21T08:53:54.935Z,24.2
2022-08-21T08:54:57.417Z,24.2
2022-08-21T08:55:59.911Z,24.1
2022-08-21T08:57:02.115Z,24
2022-08-21T08:58:04.048Z,24.2
2022-08-21T08:59:05.948Z,24.2
2022-08-21T09:00:08.702Z,24
2022-08-21T09:01:11.096Z,24.2
2022-08-21T09:02:13.972Z,24
2022-08-21T09:03:15.898Z,24.1
2022-08-21T09:04:18.378Z,24.1
2022-08-21T09:05:20.859Z,24.1
2022-08-21T09:06:23.341Z,24
2022-08-21T09:07:25.829Z,24.1
2022-08-21T09:08:28.357Z,24
2022-08-21T09:09:30.321Z,24
2022-08-21T09:10:32.798Z,24.1
2022-08-21T09:11:35.282Z,24
2022-08-21T09:12:37.769Z,24.2
2022-08-21T09:13:39.943Z,24.1
2022-08-21T09:14:42.155Z,24
2022-08-21T09:15:43.810Z,24.1
2022-08-21T09:16:46.029Z,24.1
2022-08-21T09:17:48.229Z,24.1
2022-08-21T09:18:50.451Z,24.1
2022-08-21T09:19:52.919Z,24
2022-08-21T09:20:55.122Z,24
2022-08-21T09:21:57.293Z,24
2022-08-21T09:23:00.425Z,24
2022-08-21T09:24:03.128Z,24.1
2022-08-21T09:25:05.612Z,24
2022-08-21T09:26:08.087Z,24
2022-08-21T09:27:10.559Z,24.1
2022-08-21T09:28:13.034Z,24.1
2022-08-21T09:29:15.222Z,24.1
2022-08-21T09:30:17.501Z,24
2022-08-21T09:31:19.448Z,24
2022-08-21T09:32:21.951Z,24
2022-08-21T09:33:28.644Z,24.1
2022-08-21T09:34:31.120Z,24.2
2022-08-21T09:35:33.357Z,24.1
2022-08-21T09:36:35.281Z,24.1
2022-08-21T09:37:37.756Z,24.2
2022-08-21T09:38:40.241Z,24.1
2022-08-21T09:40:47.710Z,24.1
2022-08-21T09:41:49.975Z,24.1
2022-08-21T09:42:51.956Z,24
2022-08-21T09:43:53.960Z,24.1
2022-08-21T09:44:55.907Z,24.1
2022-08-21T09:45:58.389Z,24.2
2022-08-21T09:47:00.594Z,24
2022-08-21T09:48:03.078Z,24
2022-08-21T09:49:13.489Z,24.1
2022-08-21T09:50:12.783Z,24
2022-08-21T09:51:14.990Z,24.1
2022-08-21T09:52:17.465Z,24
2022-08-21T09:53:19.946Z,24.1
2022-08-21T09:54:22.472Z,24.1
2022-08-21T09:55:25.068Z,24.1
2022-08-21T09:56:28.082Z,24.1
2022-08-21T09:57:34.057Z,24.1
2022-08-21T09:58:36.251Z,24
2022-08-21T09:59:38.739Z,24.1
2022-08-21T10:00:41.049Z,24.1
2022-08-21T10:01:43.363Z,24.1
2022-08-21T10:02:45.846Z,24.1
2022-08-21T10:03:48.323Z,24
2022-08-21T10:05:55.820Z,24
2022-08-21T10:06:58.691Z,24.1
2022-08-21T10:08:00.905Z,24.1
2022-08-21T10:09:03.381Z,24.1
2022-08-21T10:10:05.297Z,24.1
2022-08-21T10:11:07.774Z,24
2022-08-21T10:12:11.968Z,24
2022-08-21T10:13:14.463Z,24
2022-08-21T10:14:16.947Z,24.1
2022-08-21T10:15:18.884Z,24.1
2022-08-21T10:16:21.364Z,24
2022-08-21T10:17:23.591Z,24
2022-08-21T10:18:26.058Z,24.1
2022-08-21T10:19:28.289Z,24
2022-08-21T10:20:30.462Z,24.1
2022-08-21T10:21:32.649Z,24
2022-08-21T10:22:35.115Z,24
2022-08-21T10:23:37.055Z,24
2022-08-21T10:24:39.522Z,24.1
2022-08-21T10:26:46.698Z,24.1
2022-08-21T10:27:48.602Z,24
2022-08-21T10:28:50.804Z,24
2022-08-21T10:29:53.284Z,24.1
2022-08-21T10:30:55.603Z,24
2022-08-21T10:31:58.118Z,24
2022-08-21T10:33:00.575Z,24.1
2022-08-21T10:34:02.220Z,24
2022-08-21T10:35:04.686Z,24.1
2022-08-21T10:36:07.166Z,24
2022-08-21T10:37:11.500Z,24.1
2022-08-21T10:40:24.128Z,24
2022-08-21T10:41:26.874Z,24
2022-08-21T10:42:29.069Z,24
2022-08-21T10:43:31.259Z,24
2022-08-21T10:44:33.726Z,24.1
2022-08-21T10:45:36.204Z,24.2
2022-08-21T10:46:38.490Z,24.1
2022-08-21T10:47:40.991Z,24.1
2022-08-21T10:48:43.172Z,24
2022-08-21T10:49:45.106Z,24
2022-08-21T10:50:47.010Z,24.1
2022-08-21T10:51:49.492Z,24
2022-08-21T10:52:52.096Z,24.1
2022-08-21T10:53:54.292Z,24.1
2022-08-21T10:54:56.486Z,24
2022-08-21T10:55:58.968Z,24.2
2022-08-21T10:58:06.449Z,24.1
2022-08-21T10:59:08.968Z,24
2022-08-21T11:00:11.224Z,24.2
2022-08-21T11:01:14.005Z,24.1
2022-08-21T11:02:16.908Z,24.1
2022-08-21T11:03:19.398Z,24
2022-08-21T11:04:21.589Z,24
2022-08-21T11:05:23.516Z,24.2
2022-08-21T11:06:25.149Z,24.1
2022-08-21T11:08:33.384Z,24
2022-08-21T11:09:36.712Z,24.1
2022-08-21T11:12:52.803Z,24
2022-08-21T11:13:59.920Z,24
2022-08-21T11:15:02.247Z,24.1
2022-08-21T11:16:04.916Z,24
2022-08-21T11:17:06.834Z,24.1
2022-08-21T11:18:12.801Z,24.1
2022-08-21T11:19:15.278Z,24
2022-08-21T11:20:17.756Z,24.1
2022-08-21T11:21:19.958Z,24
2022-08-21T11:22:22.168Z,24
2022-08-21T11:23:24.660Z,24
2022-08-21T11:24:27.352Z,24
2022-08-21T11:26:34.816Z,24.1
2022-08-21T11:27:37.038Z,24
2022-08-21T11:28:39.230Z,24
2022-08-21T11:29:41.766Z,24.1
2022-08-21T11:30:44.231Z,24.1
2022-08-21T11:31:46.411Z,24.1
2022-08-21T11:32:48.881Z,24.1
2022-08-21T11:33:51.283Z,24
2022-08-21T11:34:53.474Z,24
2022-08-21T11:35:55.967Z,24.1
2022-08-21T11:36:58.461Z,24
2022-08-21T11:38:00.649Z,24
2022-08-21T11:39:02.836Z,24
2022-08-21T11:40:05.435Z,24.1
2022-08-21T11:41:07.631Z,24
2022-08-21T11:42:09.871Z,24.1
2022-08-21T11:43:12.364Z,24
2022-08-21T11:44:14.700Z,24
2022-08-21T11:45:16.881Z,24.1
2022-08-21T11:46:19.370Z,24
2022-08-21T11:47:21.940Z,24
2022-08-21T11:48:24.142Z,24.1
2022-08-21T11:49:26.610Z,24.1
2022-08-21T11:51:34.092Z,24.1
2022-08-21T11:52:36.567Z,24.1
2022-08-21T11:53:38.769Z,24.1
2022-08-21T11:54:41.318Z,24
2022-08-21T11:55:43.791Z,24.1
2022-08-21T11:56:46.291Z,23.9
2022-08-21T11:57:48.775Z,23.9
2022-08-21T11:58:50.983Z,24
2022-08-21T11:59:58.513Z,24.1
2022-08-21T12:01:00.419Z,24
2022-08-21T12:02:03.028Z,24.1
2022-08-21T12:03:04.877Z,24.1
2022-08-21T12:04:07.373Z,24.1
2022-08-21T12:05:09.999Z,24
2022-08-21T12:06:12.198Z,24.1
2022-08-21T12:07:13.850Z,24
2022-08-21T12:08:16.331Z,24.1
2022-08-21T12:09:18.821Z,24
2022-08-21T12:10:21.301Z,24.1
2022-08-21T12:12:28.510Z,24
2022-08-21T12:14:35.998Z,24
2022-08-21T12:15:38.482Z,24
2022-08-21T12:16:40.691Z,24
2022-08-21T12:17:42.624Z,24
2022-08-21T12:18:44.826Z,24.1
2022-08-21T12:19:47.323Z,24
2022-08-21T12:20:51.395Z,24
2022-08-21T12:21:53.886Z,24
2022-08-21T12:22:55.855Z,24
2022-08-21T12:24:00.164Z,24.1
2022-08-21T12:25:02.088Z,23.9
2022-08-21T12:26:04.293Z,24.1
2022-08-21T12:27:06.770Z,24.1
2022-08-21T12:28:09.251Z,24.1
2022-08-21T12:29:11.486Z,24.1
2022-08-21T12:30:13.711Z,24.1
2022-08-21T12:31:15.960Z,24
2022-08-21T12:32:18.158Z,23.9
2022-08-21T12:33:20.629Z,24.1
2022-08-21T12:34:23.117Z,24.2
2022-08-21T12:35:26.172Z,24
2022-08-21T12:36:28.349Z,24
2022-08-21T12:37:30.550Z,24.2
2022-08-21T12:38:32.797Z,24
2022-08-21T12:39:34.759Z,24.1
2022-08-21T12:40:36.976Z,24.2
2022-08-21T12:41:39.453Z,24.1
2022-08-21T12:42:41.396Z,24.1
2022-08-21T12:43:43.892Z,24.1
2022-08-21T12:44:46.787Z,24.1
2022-08-21T12:45:52.268Z,24
2022-08-21T12:46:54.743Z,24
2022-08-21T12:47:56.940Z,24.1
2022-08-21T12:48:59.151Z,24.1
2022-08-21T12:50:01.622Z,24
2022-08-21T12:51:04.249Z,24
2022-08-21T12:52:06.444Z,24.2
2022-08-21T12:54:13.966Z,24.2
2022-08-21T12:55:16.168Z,24
2022-08-21T12:56:18.652Z,24
2022-08-21T12:57:22.342Z,24.1
2022-08-21T12:58:24.810Z,24
2022-08-21T12:59:26.992Z,24.1
2022-08-21T13:00:29.473Z,24.1
2022-08-21T13:01:31.941Z,24.1
2022-08-21T13:02:39.035Z,24.1
2022-08-21T13:03:41.527Z,24.1
2022-08-21T13:04:43.725Z,24.1
2022-08-21T13:05:45.912Z,24.1
2022-08-21T13:06:48.387Z,24.1
2022-08-21T13:07:50.606Z,24
2022-08-21T13:08:52.790Z,24
2022-08-21T13:09:55.247Z,24.1
2022-08-21T13:10:57.474Z,24.1
2022-08-21T13:12:05.450Z,24
2022-08-21T13:14:12.928Z,24.2
2022-08-21T13:15:15.746Z,24
2022-08-21T13:16:17.666Z,24
2022-08-21T13:18:28.198Z,24
2022-08-21T13:19:30.411Z,24
2022-08-21T13:20:32.604Z,24.1
2022-08-21T13:21:34.541Z,24
2022-08-21T13:22:36.192Z,24.1
2022-08-21T13:23:38.096Z,24
2022-08-21T13:25:45.348Z,24.1
2022-08-21T13:26:47.562Z,24
2022-08-21T13:27:50.022Z,24.1
2022-08-21T13:28:52.626Z,24
2022-08-21T13:29:55.854Z,24.2
2022-08-21T13:30:58.115Z,24
2022-08-21T13:32:00.316Z,24
2022-08-21T13:33:02.810Z,24.1
2022-08-21T13:34:05.344Z,24.2
2022-08-21T13:35:07.930Z,24
2022-08-21T13:36:09.886Z,24
2022-08-21T13:37:12.410Z,24
2022-08-21T13:38:14.628Z,24
2022-08-21T13:39:17.100Z,24
2022-08-21T13:40:19.760Z,24
2022-08-21T13:41:22.368Z,24
2022-08-21T13:42:24.869Z,24
2022-08-21T13:43:26.824Z,24
2022-08-21T13:44:29.316Z,24
2022-08-21T13:45:32.845Z,24
2022-08-21T13:46:34.760Z,24.1
2022-08-21T13:47:36.991Z,24
2022-08-21T13:48:39.479Z,24.1
2022-08-21T13:49:41.963Z,24
2022-08-21T13:50:44.174Z,24
2022-08-21T13:51:46.648Z,24.1
2022-08-21T13:52:49.409Z,24
2022-08-21T13:53:51.966Z,24.1
2022-08-21T13:54:54.193Z,24.1
2022-08-21T13:57:01.690Z,24.1
2022-08-21T13:58:03.949Z,24.1
2022-08-21T13:59:06.499Z,23.9
2022-08-21T14:00:09.019Z,24.1
2022-08-21T14:01:11.283Z,24.1
2022-08-21T14:02:13.940Z,24.1
2022-08-21T14:03:20.470Z,24
2022-08-21T14:04:22.673Z,24.1
2022-08-21T14:05:25.156Z,24
2022-08-21T14:06:27.653Z,24.1
2022-08-21T14:07:29.852Z,24.1
2022-08-21T14:08:32.331Z,24
2022-08-21T14:09:34.816Z,24.1
2022-08-21T14:10:37.294Z,24
2022-08-21T14:11:39.485Z,24.1
2022-08-21T14:12:41.815Z,24
2022-08-21T14:13:44.453Z,24
2022-08-21T14:14:46.954Z,24.1
2022-08-21T14:15:49.426Z,24
2022-08-21T14:16:51.937Z,24.1
2022-08-21T14:17:54.402Z,24.1
2022-08-21T14:20:01.885Z,24.1
2022-08-21T14:21:03.839Z,24.1
2022-08-21T14:22:07.477Z,24
2022-08-21T14:23:09.684Z,24.1
2022-08-21T14:24:12.910Z,24
2022-08-21T14:25:20.437Z,24.1
2022-08-21T14:26:22.646Z,24.1
2022-08-21T14:27:25.129Z,24
2022-08-21T14:28:29.204Z,24
2022-08-21T14:30:36.665Z,24.1
2022-08-21T14:32:46.637Z,24
2022-08-21T14:33:49.885Z,24.1
2022-08-21T14:34:52.645Z,24
2022-08-21T14:36:00.592Z,24
2022-08-21T14:37:03.062Z,24.1
2022-08-21T14:38:05.596Z,24.1
2022-08-21T14:39:07.805Z,24.1
2022-08-21T14:40:10.393Z,24
2022-08-21T14:41:15.148Z,24.1
2022-08-21T14:42:17.332Z,24.1
2022-08-21T14:43:19.838Z,24.1
2022-08-21T14:44:22.056Z,24.1
2022-08-21T14:46:29.270Z,24.2
2022-08-21T14:47:31.491Z,24.1
2022-08-21T14:48:33.758Z,24
2022-08-21T14:49:36.011Z,24.1
2022-08-21T14:50:38.225Z,24
2022-08-21T14:52:45.689Z,24
2022-08-21T14:53:48.202Z,24
2022-08-21T14:54:50.676Z,24
2022-08-21T14:55:53.161Z,24.1
2022-08-21T14:56:55.367Z,24.1
2022-08-21T14:57:57.861Z,24
2022-08-21T14:58:59.820Z,24.1
2022-08-21T15:00:02.989Z,24.1
2022-08-21T15:01:05.743Z,24.2
2022-08-21T15:02:07.908Z,24
2022-08-21T15:03:10.375Z,24.2
2022-08-21T15:04:12.596Z,24.1
2022-08-21T15:06:19.807Z,24.1
2022-08-21T15:07:22.283Z,24
2022-08-21T15:08:24.217Z,24.1
2022-08-21T15:09:26.697Z,24
2022-08-21T15:10:29.191Z,24
2022-08-21T15:12:36.663Z,24
2022-08-21T15:13:38.866Z,24.1